Time;durP1;ratioP1;P1;durP2;ratioP2;P2;SDS_P1;SDS_P2;PMS_P1;PMS_P2;Temp;Humidity;BMP_temperature;BMP_pressure;BME280_temperature;BME280_humidity;BME280_pressure;Samples;Min_cycle;Max_cycle;Signal;HPM_P1;HPM_P2
2023/01/26 00:00:30;;;;;;;61.03;22.95;;;-0.50;99.90;;;;;;5004195;28;20050;-61
2023/01/26 00:02:56;;;;;;;65.82;27.92;;;-0.80;99.90;;;;;;5004175;28;20053;-62
2023/01/26 00:05:21;;;;;;;60.30;24.38;;;-0.20;99.90;;;;;;5003907;28;20104;-61
2023/01/26 00:07:47;;;;;;;66.18;25.25;;;1.60;99.90;;;;;;5005106;28;20544;-62
2023/01/26 00:10:14;;;;;;;57.42;23.33;;;-1.00;99.90;;;;;;5005221;28;20049;-63
2023/01/26 00:12:40;;;;;;;72.13;26.23;;;-0.50;99.90;;;;;;5004629;28;20108;-62
2023/01/26 00:15:06;;;;;;;65.38;26.70;;;-0.50;99.90;;;;;;5005195;28;20065;-60
2023/01/26 00:17:32;;;;;;;61.35;22.42;;;-0.50;99.90;;;;;;5004119;28;20050;-62
2023/01/26 00:19:58;;;;;;;48.45;19.42;;;-0.70;99.90;;;;;;5005385;28;20042;-60
2023/01/26 00:22:25;;;;;;;64.25;24.95;;;0.30;99.90;;;;;;5006285;28;20045;-62
2023/01/26 00:24:51;;;;;;;55.28;20.20;;;-0.50;99.90;;;;;;5005843;28;20038;-63
2023/01/26 00:27:17;;;;;;;66.35;26.10;;;1.60;99.90;;;;;;5005341;28;20052;-61
2023/01/26 00:29:43;;;;;;;59.42;23.92;;;0.80;99.90;;;;;;5006523;28;20083;-62
2023/01/26 00:32:08;;;;;;;64.53;26.35;;;-0.90;99.90;;;;;;5006151;28;20052;-62
2023/01/26 00:34:34;;;;;;;59.92;24.05;;;-0.20;99.90;;;;;;5005590;28;20050;-62
2023/01/26 00:37:00;;;;;;;68.35;26.40;;;-0.80;99.90;;;;;;5004636;28;20125;-62
2023/01/26 00:39:25;;;;;;;57.90;23.13;;;-0.40;99.90;;;;;;5006447;28;20050;-62
2023/01/26 00:42:08;;;;;;;51.88;19.02;;;0.80;99.90;;;;;;5005090;28;20042;-63
2023/01/26 00:44:38;;;;;;;48.78;17.83;;;0.00;99.90;;;;;;5006459;28;20042;-62
2023/01/26 00:47:09;;;;;;;52.92;20.63;;;-1.10;99.90;;;;;;5005094;28;20084;-62
2023/01/26 00:49:35;;;;;;;57.17;22.40;;;-0.20;99.90;;;;;;5005953;28;20066;-61
2023/01/26 00:52:02;;;;;;;67.13;25.35;;;-0.30;99.90;;;;;;5005710;28;20161;-63
2023/01/26 00:54:27;;;;;;;66.43;22.67;;;0.20;99.90;;;;;;5005690;28;20038;-58
2023/01/26 00:56:54;;;;;;;67.93;25.95;;;-0.20;99.90;;;;;;5005321;28;20485;-62
2023/01/26 00:59:20;;;;;;;71.55;26.02;;;0.40;99.90;;;;;;5005876;28;20370;-61
2023/01/26 01:01:46;;;;;;;64.75;25.50;;;-0.20;99.90;;;;;;5006535;28;20107;-63
2023/01/26 01:04:13;;;;;;;67.07;24.00;;;1.50;99.90;;;;;;5005629;28;20046;-62
2023/01/26 01:06:38;;;;;;;59.40;21.38;;;0.30;99.90;;;;;;5005497;28;20045;-60
2023/01/26 01:09:04;;;;;;;58.10;22.17;;;-1.00;99.90;;;;;;5006184;28;20628;-61
2023/01/26 01:11:30;;;;;;;55.03;21.23;;;0.00;99.90;;;;;;5004965;28;20042;-60
2023/01/26 01:13:55;;;;;;;65.20;25.05;;;0.90;99.90;;;;;;5005563;28;20086;-62
2023/01/26 01:16:21;;;;;;;64.78;25.83;;;-0.90;99.90;;;;;;5005922;28;20070;-63
2023/01/26 01:18:47;;;;;;;56.80;20.95;;;-0.20;99.90;;;;;;5005507;28;20049;-60
2023/01/26 01:21:15;;;;;;;61.28;23.90;;;-0.80;99.90;;;;;;5005379;28;20045;-56
2023/01/26 01:23:42;;;;;;;55.97;21.08;;;-0.40;99.90;;;;;;5005861;28;20034;-62
2023/01/26 01:26:11;;;;;;;59.60;23.48;;;-0.90;99.90;;;;;;5004708;28;20050;-62
2023/01/26 01:28:37;;;;;;;56.53;23.23;;;-0.90;99.90;;;;;;5005776;28;20941;-62
2023/01/26 01:31:13;;;;;;;56.72;21.30;;;0.40;99.90;;;;;;5005695;28;20057;-62
2023/01/26 01:33:39;;;;;;;57.15;22.75;;;-0.30;99.90;;;;;;5007496;28;20521;-62
2023/01/26 01:36:09;;;;;;;60.00;23.25;;;-0.30;99.90;;;;;;5009455;28;20050;-61
2023/01/26 01:38:34;;;;;;;54.97;22.58;;;-0.90;99.90;;;;;;5009534;28;20501;-60
2023/01/26 01:41:00;;;;;;;54.75;20.98;;;0.80;99.90;;;;;;5007973;28;20074;-59
2023/01/26 01:43:27;;;;;;;56.65;21.85;;;0.00;99.90;;;;;;5008772;28;20100;-63
2023/01/26 01:45:54;;;;;;;55.20;22.52;;;-0.10;99.90;;;;;;5008873;28;20041;-62
2023/01/26 01:48:28;;;;;;;49.05;21.27;;;-0.30;99.90;;;;;;5008809;28;20045;-59
2023/01/26 01:50:58;;;;;;;46.25;18.98;;;-0.90;99.90;;;;;;5009020;28;20042;-62
2023/01/26 01:53:31;;;;;;;51.63;20.25;;;-0.70;99.90;;;;;;5009536;28;20056;-56
2023/01/26 01:56:06;;;;;;;50.65;18.92;;;-0.80;99.90;;;;;;5007545;28;20041;-61
2023/01/26 01:58:36;;;;;;;51.88;19.40;;;-0.90;99.90;;;;;;5008193;28;20048;-60
2023/01/26 02:01:01;;;;;;;48.25;20.75;;;1.30;99.90;;;;;;5008766;28;20154;-62
2023/01/26 02:03:29;;;;;;;48.72;18.60;;;-0.10;99.90;;;;;;5008521;28;20070;-61
2023/01/26 02:06:06;;;;;;;50.47;19.85;;;-0.40;99.90;;;;;;5077754;23;20057;-61
2023/01/26 02:08:42;;;;;;;53.20;21.25;;;-0.80;99.90;;;;;;4988628;28;20093;-59
2023/01/26 02:11:16;;;;;;;52.10;20.30;;;-0.10;99.90;;;;;;4987176;28;20054;-62
2023/01/26 02:13:47;;;;;;;52.67;20.07;;;-0.90;99.90;;;;;;4987324;28;20057;-57
2023/01/26 02:16:14;;;;;;;41.83;16.25;;;-0.20;99.90;;;;;;4987222;28;20310;-58
2023/01/26 02:18:42;;;;;;;49.65;19.13;;;-0.80;99.90;;;;;;4986885;28;20212;-60
2023/01/26 02:21:15;;;;;;;45.92;18.73;;;-0.20;99.90;;;;;;4969401;28;20050;-59
2023/01/26 02:23:43;;;;;;;47.40;18.92;;;0.20;99.90;;;;;;4986500;28;20050;-60
2023/01/26 02:26:41;;;;;;;48.83;19.08;;;-0.80;99.90;;;;;;4986120;28;20051;-60
2023/01/26 02:29:10;;;;;;;50.35;19.58;;;0.00;99.90;;;;;;4973491;28;20063;-62
2023/01/26 02:31:37;;;;;;;43.92;16.67;;;0.00;99.90;;;;;;4986484;28;20038;-61
2023/01/26 02:34:03;;;;;;;39.83;16.30;;;0.00;99.90;;;;;;4985966;28;20101;-62
2023/01/26 02:36:31;;;;;;;45.28;17.60;;;-0.80;99.90;;;;;;4986255;28;20046;-59
2023/01/26 02:39:05;;;;;;;46.15;18.45;;;-0.40;99.90;;;;;;4986580;28;20054;-62
2023/01/26 02:44:15;;;;;;;47.50;19.07;;;-0.50;99.90;;;;;;4986727;28;20058;-62
2023/01/26 02:46:41;;;;;;;40.30;14.80;;;-0.70;99.90;;;;;;4985780;28;20461;-61
2023/01/26 02:51:51;;;;;;;45.47;18.35;;;1.70;99.90;;;;;;4986713;28;20050;-61
2023/01/26 02:57:01;;;;;;;49.03;18.30;;;-0.20;99.90;;;;;;4985507;28;20047;-58
2023/01/26 02:59:26;;;;;;;42.05;16.08;;;0.10;99.90;;;;;;4985451;28;20508;-61
2023/01/26 03:01:54;;;;;;;48.47;18.65;;;-0.40;99.90;;;;;;4986339;28;20097;-59
2023/01/26 03:04:20;;;;;;;48.47;18.67;;;-0.60;99.90;;;;;;4986124;28;20129;-59
2023/01/26 03:06:46;;;;;;;45.25;18.83;;;-0.70;99.90;;;;;;4985349;28;20138;-60
2023/01/26 03:09:11;;;;;;;46.25;18.52;;;0.10;99.90;;;;;;4985817;28;20096;-61
2023/01/26 03:11:43;;;;;;;46.95;18.95;;;-0.70;99.90;;;;;;4985182;28;20058;-57
2023/01/26 03:14:13;;;;;;;47.22;18.27;;;0.10;99.90;;;;;;4985563;28;20481;-62
2023/01/26 03:16:40;;;;;;;48.58;19.40;;;0.00;99.90;;;;;;4985781;28;20038;-59
2023/01/26 03:29:46;;;;;;;37.67;14.93;;;-0.50;99.90;;;;;;4985626;28;20969;-60
2023/01/26 03:32:13;;;;;;;39.33;16.15;;;0.20;99.90;;;;;;4984590;28;20137;-58
2023/01/26 03:34:38;;;;;;;40.28;15.95;;;-0.30;99.90;;;;;;4985030;28;20038;-61
2023/01/26 03:37:04;;;;;;;42.03;17.30;;;0.80;99.90;;;;;;4984955;28;20042;-56
2023/01/26 03:58:53;;;;;;;43.57;18.37;;;1.10;99.90;;;;;;4984753;28;20607;-62
2023/01/26 04:01:25;;;;;;;43.13;17.27;;;-0.20;99.90;;;;;;4985296;28;20413;-61
2023/01/26 04:09:21;;;;;;;41.35;16.85;;;0.20;99.90;;;;;;4984546;28;20321;-61
2023/01/26 04:11:47;;;;;;;40.55;16.27;;;0.10;99.90;;;;;;4984210;28;20388;-61
2023/01/26 04:22:28;;;;;;;42.67;16.33;;;0.30;99.90;;;;;;4985232;28;20089;-55
2023/01/26 04:24:55;;;;;;;38.33;15.52;;;0.00;99.90;;;;;;4984687;28;20038;-59
2023/01/26 04:27:22;;;;;;;52.70;18.45;;;0.20;99.90;;;;;;4983699;28;20523;-58
2023/01/26 04:29:47;;;;;;;47.75;18.52;;;-0.50;99.90;;;;;;4984818;28;20053;-61
2023/01/26 04:32:13;;;;;;;48.35;17.73;;;0.30;99.90;;;;;;4984589;28;20104;-60
2023/01/26 04:34:39;;;;;;;44.25;17.98;;;0.10;99.90;;;;;;4983977;28;20046;-61
2023/01/26 04:37:05;;;;;;;45.45;17.75;;;-0.10;99.90;;;;;;4966980;28;20046;-56
2023/01/26 04:39:30;;;;;;;47.63;18.70;;;-0.20;99.90;;;;;;4985399;28;20050;-62
2023/01/26 04:41:56;;;;;;;44.70;17.42;;;0.30;99.90;;;;;;4966407;28;20046;-61
2023/01/26 04:44:22;;;;;;;52.15;19.40;;;-0.30;99.90;;;;;;4984360;28;20392;-59
2023/01/26 04:46:47;;;;;;;48.78;19.75;;;0.00;99.90;;;;;;4984627;28;20042;-59
2023/01/26 04:49:14;;;;;;;49.38;18.42;;;-0.40;99.90;;;;;;4984753;28;20070;-62
2023/01/26 04:51:40;;;;;;;47.17;18.10;;;0.20;99.90;;;;;;4983822;28;20245;-62
2023/01/26 04:54:06;;;;;;;49.70;18.55;;;0.10;99.90;;;;;;4984439;28;20062;-61
2023/01/26 04:56:34;;;;;;;46.40;18.42;;;0.60;99.90;;;;;;4984142;28;20054;-59
2023/01/26 04:59:02;;;;;;;47.75;18.00;;;0.00;99.90;;;;;;4984209;28;20042;-57
2023/01/26 05:01:28;;;;;;;42.42;17.63;;;0.00;99.90;;;;;;4984764;28;20407;-58
2023/01/26 05:03:53;;;;;;;47.47;18.48;;;1.30;99.90;;;;;;4984363;28;20046;-61
2023/01/26 05:06:19;;;;;;;52.80;18.35;;;0.40;99.90;;;;;;4986036;28;20062;-61
2023/01/26 05:08:45;;;;;;;44.28;17.17;;;-0.10;99.90;;;;;;4988274;28;20514;-60
2023/01/26 05:11:11;;;;;;;45.88;17.30;;;-0.30;99.90;;;;;;4987821;28;20100;-57
2023/01/26 05:13:37;;;;;;;44.60;18.02;;;1.20;99.90;;;;;;4970638;28;20462;-62
2023/01/26 05:16:03;;;;;;;45.38;18.50;;;0.60;99.90;;;;;;4988196;28;20038;-60
2023/01/26 05:18:29;;;;;;;42.08;18.02;;;0.00;99.90;;;;;;4988128;28;20042;-62
2023/01/26 05:20:55;;;;;;;44.28;17.70;;;0.00;99.90;;;;;;4987519;28;20449;-61
2023/01/26 05:23:21;;;;;;;41.05;16.25;;;-0.10;99.90;;;;;;4987552;28;20046;-58
2023/01/26 05:25:47;;;;;;;41.97;17.23;;;-0.20;99.90;;;;;;4987365;28;20046;-53
2023/01/26 05:28:13;;;;;;;42.50;16.88;;;0.30;99.90;;;;;;4987456;28;20050;-62
2023/01/26 05:30:38;;;;;;;41.65;18.10;;;0.30;99.90;;;;;;4987370;28;20294;-61
2023/01/26 05:33:05;;;;;;;47.63;18.08;;;0.50;99.90;;;;;;4987769;28;20487;-57
2023/01/26 05:35:31;;;;;;;44.08;17.00;;;0.30;99.90;;;;;;4987935;28;20043;-59
2023/01/26 05:37:57;;;;;;;40.95;17.00;;;1.10;99.90;;;;;;4969757;28;20782;-56
2023/01/26 05:40:24;;;;;;;40.80;17.48;;;0.50;99.90;;;;;;4986999;28;20281;-61
2023/01/26 05:42:51;;;;;;;42.60;18.15;;;0.60;99.90;;;;;;4987614;28;20525;-62
2023/01/26 05:45:16;;;;;;;44.33;17.00;;;0.50;99.90;;;;;;4987565;28;20194;-58
2023/01/26 05:47:44;;;;;;;38.05;17.00;;;0.00;99.90;;;;;;4987542;28;20057;-62
2023/01/26 05:50:10;;;;;;;40.90;16.33;;;0.00;99.90;;;;;;4987494;28;20042;-59
2023/01/26 05:52:36;;;;;;;43.30;17.48;;;0.50;99.90;;;;;;4987684;28;20129;-60
2023/01/26 05:55:02;;;;;;;50.17;18.75;;;0.50;99.90;;;;;;4986572;28;20551;-61
2023/01/26 05:57:28;;;;;;;50.65;18.77;;;0.40;99.90;;;;;;4987526;28;20090;-59
2023/01/26 05:59:54;;;;;;;42.45;17.38;;;0.40;99.90;;;;;;4987612;28;20096;-55
2023/01/26 06:02:20;;;;;;;63.65;20.30;;;-0.10;99.90;;;;;;4986845;28;20386;-58
2023/01/26 06:04:46;;;;;;;52.22;17.60;;;0.90;99.90;;;;;;4987351;28;20049;-61
2023/01/26 06:07:15;;;;;;;55.85;19.33;;;0.50;99.90;;;;;;4987014;28;20046;-58
2023/01/26 06:09:41;;;;;;;53.92;18.63;;;0.20;99.90;;;;;;4986530;28;20042;-56
2023/01/26 06:12:15;;;;;;;54.45;18.77;;;1.30;99.90;;;;;;4986500;28;20054;-58
2023/01/26 06:14:41;;;;;;;53.83;18.83;;;0.00;99.90;;;;;;4987025;28;20046;-62
2023/01/26 06:17:07;;;;;;;59.70;19.92;;;0.50;99.90;;;;;;4985488;28;20129;-56
2023/01/26 06:19:32;;;;;;;55.70;18.98;;;-0.10;99.90;;;;;;4987197;28;20046;-58
2023/01/26 06:21:58;;;;;;;50.83;18.75;;;0.60;99.90;;;;;;4969504;28;20042;-59
2023/01/26 06:24:24;;;;;;;57.20;19.98;;;0.40;99.90;;;;;;4986860;28;20049;-62
2023/01/26 06:26:49;;;;;;;51.72;19.02;;;0.20;99.90;;;;;;4986018;28;20042;-62
2023/01/26 06:29:15;;;;;;;55.42;19.13;;;0.80;99.90;;;;;;4987358;28;20125;-61
2023/01/26 06:31:41;;;;;;;69.53;20.38;;;0.70;99.90;;;;;;4969255;28;20096;-61
2023/01/26 06:34:07;;;;;;;66.88;20.45;;;0.50;99.90;;;;;;4986469;28;20078;-56
2023/01/26 06:36:33;;;;;;;58.50;19.85;;;0.20;99.90;;;;;;4986547;28;20038;-61
2023/01/26 06:38:59;;;;;;;55.10;18.77;;;0.50;99.90;;;;;;4968939;28;20047;-57
2023/01/26 06:41:25;;;;;;;55.53;19.33;;;0.10;99.90;;;;;;4985556;28;20507;-55
2023/01/26 06:43:50;;;;;;;61.72;19.42;;;0.10;99.90;;;;;;4986350;28;20719;-62
2023/01/26 06:46:17;;;;;;;52.05;19.23;;;0.30;99.90;;;;;;4969216;28;20061;-60
2023/01/26 06:48:43;;;;;;;49.72;18.10;;;0.40;99.90;;;;;;4986325;28;20135;-60
2023/01/26 06:51:14;;;;;;;53.90;18.83;;;0.30;99.90;;;;;;4968359;28;20053;-57
2023/01/26 06:53:46;;;;;;;56.15;19.23;;;0.80;99.90;;;;;;4986250;28;20057;-61
2023/01/26 06:56:11;;;;;;;50.88;18.90;;;0.90;99.90;;;;;;4967983;28;20053;-61
2023/01/26 06:58:37;;;;;;;58.63;19.10;;;0.70;99.90;;;;;;4986049;28;20034;-61
2023/01/26 07:01:03;;;;;;;57.97;19.08;;;0.10;99.90;;;;;;4986120;28;20463;-58
2023/01/26 07:03:29;;;;;;;56.63;19.30;;;0.10;99.90;;;;;;4986289;28;20561;-60
2023/01/26 07:05:55;;;;;;;53.08;19.45;;;1.30;99.90;;;;;;4985491;28;20042;-62
2023/01/26 07:08:21;;;;;;;55.13;18.70;;;0.90;99.90;;;;;;4985724;28;20038;-61
2023/01/26 07:10:47;;;;;;;55.25;19.20;;;0.80;99.90;;;;;;4985564;28;20050;-59
2023/01/26 07:13:13;;;;;;;67.88;19.35;;;0.90;99.90;;;;;;4985407;28;20115;-57
2023/01/26 07:15:39;;;;;;;58.13;18.58;;;0.90;99.90;;;;;;4986024;28;20125;-61
2023/01/26 07:18:04;;;;;;;61.95;19.60;;;1.00;99.90;;;;;;4986091;28;20522;-62
2023/01/26 07:20:30;;;;;;;50.65;17.10;;;0.80;99.90;;;;;;4985644;28;20530;-55
2023/01/26 07:22:58;;;;;;;53.38;17.83;;;1.00;99.90;;;;;;4985429;28;20411;-62
2023/01/26 07:25:24;;;;;;;56.08;18.25;;;1.70;99.90;;;;;;4985099;28;20132;-59
2023/01/26 07:27:55;;;;;;;52.88;17.08;;;1.10;99.90;;;;;;4985606;28;20105;-61
2023/01/26 07:30:20;;;;;;;53.50;16.85;;;0.70;99.90;;;;;;4985274;28;20050;-59
2023/01/26 07:32:46;;;;;;;58.47;16.88;;;1.20;99.90;;;;;;4985467;28;20108;-59
2023/01/26 07:35:12;;;;;;;52.33;16.45;;;0.90;99.90;;;;;;4967709;28;20181;-62
2023/01/26 07:37:37;;;;;;;57.83;15.90;;;0.90;99.90;;;;;;4985197;28;20070;-58
2023/01/26 07:40:04;;;;;;;49.63;16.25;;;1.80;99.90;;;;;;4984901;28;20365;-62
2023/01/26 07:42:30;;;;;;;55.55;14.25;;;0.90;99.90;;;;;;4985580;28;20133;-59
2023/01/26 07:44:56;;;;;;;59.63;11.95;;;1.30;99.90;;;;;;4984773;28;20128;-61
2023/01/26 07:47:22;;;;;;;52.80;11.65;;;1.00;99.90;;;;;;4967845;28;20570;-60
2023/01/26 07:49:47;;;;;;;56.90;12.40;;;2.40;99.90;;;;;;4985493;28;20046;-61
2023/01/26 07:52:13;;;;;;;57.47;12.27;;;2.20;99.90;;;;;;4984818;28;20145;-61
2023/01/26 07:54:39;;;;;;;59.92;11.32;;;2.70;99.90;;;;;;4984128;28;20437;-61
2023/01/26 07:57:07;;;;;;;62.05;12.05;;;1.70;99.90;;;;;;4984930;28;20098;-60
2023/01/26 07:59:32;;;;;;;65.13;11.65;;;2.90;99.90;;;;;;4985308;28;20052;-58
2023/01/26 08:01:58;;;;;;;59.38;11.25;;;2.50;99.90;;;;;;4984759;28;20050;-62
2023/01/26 08:04:24;;;;;;;505.75;58.30;;;2.50;99.90;;;;;;4965649;28;20531;-61
2023/01/26 08:06:51;;;;;;;345.58;33.28;;;2.30;99.90;;;;;;4963828;28;20071;-62
2023/01/26 08:09:17;;;;;;;58.22;10.30;;;2.30;99.90;;;;;;4964984;28;20468;-59
2023/01/26 08:11:43;;;;;;;68.93;10.93;;;2.50;99.90;;;;;;4965193;28;20099;-61
2023/01/26 08:14:08;;;;;;;55.97;9.48;;;1.90;99.90;;;;;;4966219;28;20517;-59
2023/01/26 08:16:34;;;;;;;70.88;9.65;;;2.50;99.90;;;;;;4965556;28;20173;-60
2023/01/26 08:19:00;;;;;;;66.00;8.35;;;2.20;99.90;;;;;;4964849;28;20057;-62
2023/01/26 08:21:26;;;;;;;57.08;8.70;;;2.40;99.90;;;;;;4963869;28;20148;-59
2023/01/26 08:23:51;;;;;;;63.42;8.57;;;2.90;99.90;;;;;;4965406;28;20145;-61
2023/01/26 08:26:18;;;;;;;58.58;8.32;;;3.30;99.90;;;;;;4964456;28;20053;-61
2023/01/26 08:28:45;;;;;;;47.67;7.88;;;2.70;99.90;;;;;;4965584;28;20047;-57
2023/01/26 08:31:19;;;;;;;51.90;8.30;;;2.60;99.90;;;;;;4965486;28;20047;-59
2023/01/26 08:33:46;;;;;;;55.90;7.40;;;2.90;99.90;;;;;;4964823;28;20039;-58
2023/01/26 08:36:14;;;;;;;52.30;7.45;;;2.40;99.90;;;;;;4965731;28;20180;-60
2023/01/26 08:38:40;;;;;;;58.53;7.97;;;2.10;99.90;;;;;;4965499;28;20046;-62
2023/01/26 08:41:06;;;;;;;58.03;7.72;;;1.90;99.90;;;;;;4963417;28;20054;-58
2023/01/26 08:43:32;;;;;;;53.65;7.30;;;2.40;99.90;;;;;;4965207;28;20051;-58
2023/01/26 08:45:57;;;;;;;51.95;6.93;;;2.40;99.90;;;;;;4974156;28;20511;-60
2023/01/26 08:48:23;;;;;;;68.53;7.10;;;2.60;99.90;;;;;;4983870;28;20565;-62
2023/01/26 08:50:53;;;;;;;41.83;5.78;;;1.90;99.90;;;;;;4966862;28;20471;-64
2023/01/26 08:53:19;;;;;;;52.38;6.57;;;2.60;99.90;;;;;;4984114;28;20501;-60
2023/01/26 08:55:44;;;;;;;43.85;6.57;;;2.60;99.90;;;;;;4966268;28;20133;-54
2023/01/26 08:58:10;;;;;;;58.13;6.15;;;2.10;99.90;;;;;;4984215;28;20057;-59
2023/01/26 09:00:36;;;;;;;60.80;7.28;;;2.40;99.90;;;;;;4984688;28;20137;-61
2023/01/26 09:03:03;;;;;;;62.40;6.85;;;2.80;99.90;;;;;;4984342;28;20048;-61
2023/01/26 09:05:37;;;;;;;47.92;6.55;;;2.90;99.90;;;;;;4966289;28;20062;-61
2023/01/26 09:08:05;;;;;;;50.22;6.45;;;3.20;99.90;;;;;;4984241;28;20051;-61
2023/01/26 09:10:31;;;;;;;46.08;6.85;;;2.70;99.90;;;;;;4983676;28;20443;-58
2023/01/26 09:12:58;;;;;;;47.47;7.13;;;3.40;99.90;;;;;;4983596;28;20050;-62
2023/01/26 09:15:24;;;;;;;55.70;7.18;;;3.60;99.90;;;;;;4984005;28;20072;-61
2023/01/26 09:17:51;;;;;;;52.03;7.05;;;3.20;99.90;;;;;;4966727;28;20053;-58
2023/01/26 09:20:17;;;;;;;54.47;7.75;;;3.30;99.90;;;;;;4966579;28;20039;-57
2023/01/26 09:22:43;;;;;;;51.60;6.80;;;3.70;99.90;;;;;;4984397;28;20507;-60
2023/01/26 09:25:09;;;;;;;47.88;6.28;;;3.50;99.90;;;;;;4983316;28;20093;-62
2023/01/26 09:27:35;;;;;;;49.40;6.25;;;3.70;99.90;;;;;;4983510;28;20405;-61
2023/01/26 09:30:02;;;;;;;44.83;6.10;;;4.20;99.90;;;;;;4984338;28;20431;-58
2023/01/26 09:32:28;;;;;;;44.35;6.00;;;4.20;99.90;;;;;;4984131;28;20050;-61
2023/01/26 09:34:54;;;;;;;48.42;6.65;;;4.40;99.90;;;;;;4983758;28;20081;-56
2023/01/26 09:37:20;;;;;;;45.70;6.30;;;4.90;99.90;;;;;;4966268;28;20081;-62
2023/01/26 09:39:46;;;;;;;38.20;5.88;;;4.50;99.90;;;;;;4983707;28;20050;-61
2023/01/26 09:42:40;;;;;;;42.80;5.70;;;4.50;99.90;;;;;;4984170;28;20046;-58
2023/01/26 09:45:11;;;;;;;38.78;5.60;;;4.60;99.90;;;;;;4966653;28;20046;-58
2023/01/26 09:48:15;;;;;;;38.22;5.82;;;5.60;99.90;;;;;;4983259;28;20418;-58
2023/01/26 09:51:10;;;;;;;39.95;6.20;;;5.40;99.90;;;;;;4983937;28;20591;-57
2023/01/26 09:53:36;;;;;;;;;;;5.30;99.90;;;;;;4986907;28;20129;-60
2023/01/26 09:56:03;;;;;;;32.33;5.93;;;5.50;99.90;;;;;;4986527;28;20107;-58
2023/01/26 09:58:38;;;;;;;39.25;5.90;;;6.40;99.90;;;;;;4987181;28;20049;-61
2023/01/26 10:01:11;;;;;;;24.73;4.30;;;7.80;99.90;;;;;;4987208;28;20050;-62
2023/01/26 10:03:40;;;;;;;30.92;5.25;;;8.30;99.90;;;;;;4986709;28;20054;-61
2023/01/26 10:06:30;;;;;;;30.65;5.32;;;8.90;99.90;;;;;;4987038;28;20081;-55
2023/01/26 10:09:00;;;;;;;31.38;5.68;;;10.00;99.90;;;;;;4986653;28;20113;-62
2023/01/26 10:11:38;;;;;;;31.00;6.28;;;10.30;99.90;;;;;;4986262;28;20082;-61
2023/01/26 10:14:33;;;;;;;27.10;4.60;;;10.90;99.90;;;;;;4986638;28;20125;-55
2023/01/26 10:17:00;;;;;;;25.27;4.55;;;11.50;99.90;;;;;;4917303;29;20416;-62
2023/01/26 10:19:42;;;;;;;17.52;3.78;;;11.70;99.90;;;;;;4947805;29;20059;-60
2023/01/26 10:22:17;;;;;;;16.77;3.47;;;12.00;99.90;;;;;;4948026;29;20145;-58
2023/01/26 10:24:47;;;;;;;23.23;4.15;;;12.20;99.90;;;;;;4947377;29;20035;-61
2023/01/26 10:27:13;;;;;;;19.73;3.95;;;12.50;99.90;;;;;;4947982;29;20051;-61
2023/01/26 10:29:39;;;;;;;23.40;4.03;;;12.60;99.90;;;;;;4947853;29;20061;-59
2023/01/26 10:32:05;;;;;;;18.55;4.15;;;12.60;99.90;;;;;;4947742;29;20070;-60
2023/01/26 10:34:31;;;;;;;22.77;4.35;;;12.90;99.90;;;;;;4947573;29;20130;-55
2023/01/26 10:37:20;;;;;;;21.20;4.25;;;13.20;99.90;;;;;;4957931;28;20053;-61
2023/01/26 10:40:00;;;;;;;18.02;3.85;;;13.50;99.90;;;;;;4985450;28;20348;-61
2023/01/26 10:42:29;;;;;;;18.63;3.65;;;14.00;99.90;;;;;;4985402;28;20046;-61
2023/01/26 10:44:55;;;;;;;18.05;3.60;;;13.80;99.90;;;;;;4964704;28;20081;-59
2023/01/26 10:47:21;;;;;;;15.73;3.17;;;13.90;99.90;;;;;;4966834;28;20136;-55
2023/01/26 10:49:47;;;;;;;16.75;3.45;;;13.80;99.90;;;;;;4956575;28;20110;-58
2023/01/26 10:52:26;;;;;;;17.10;3.60;;;13.80;99.90;;;;;;4947233;29;20040;-61
2023/01/26 10:55:10;;;;;;;24.10;3.47;;;14.00;99.90;;;;;;4929636;29;20125;-61
2023/01/26 10:57:38;;;;;;;17.65;3.40;;;14.30;99.90;;;;;;4947113;29;20043;-61
2023/01/26 11:00:15;;;;;;;19.10;3.38;;;14.40;99.90;;;;;;4947588;29;20089;-54
2023/01/26 11:02:52;;;;;;;18.30;3.35;;;14.40;99.90;;;;;;4946680;28;20051;-62
2023/01/26 11:05:23;;;;;;;16.88;3.55;;;14.50;99.90;;;;;;4930283;28;20057;-61
2023/01/26 11:07:54;;;;;;;14.70;3.08;;;14.20;99.90;;;;;;4947601;29;20078;-59
2023/01/26 11:10:23;;;;;;;14.98;3.00;;;14.50;99.90;;;;;;4946688;29;20468;-62
2023/01/26 11:12:50;;;;;;;16.25;2.92;;;14.60;99.90;;;;;;4947395;29;20472;-62
2023/01/26 11:15:21;;;;;;;14.52;2.90;;;14.70;99.90;;;;;;4947185;29;20051;-59
2023/01/26 11:18:01;;;;;;;13.55;3.05;;;14.70;99.90;;;;;;4947022;29;20212;-62
2023/01/26 11:20:41;;;;;;;14.15;3.10;;;14.70;99.90;;;;;;4952984;28;20466;-59
2023/01/26 11:23:31;;;;;;;12.75;2.33;;;14.60;99.90;;;;;;4966993;28;20055;-61
2023/01/26 11:26:20;;;;;;;12.63;2.58;;;14.30;99.90;;;;;;4960597;28;20043;-61
2023/01/26 11:29:00;;;;;;;13.63;2.72;;;14.40;99.90;;;;;;4965515;28;20039;-61
2023/01/26 11:31:47;;;;;;;16.23;2.95;;;14.40;99.90;;;;;;4948411;28;20105;-60
2023/01/26 11:34:28;;;;;;;12.60;2.40;;;14.60;99.90;;;;;;4966264;28;20198;-59
2023/01/26 11:37:02;;;;;;;18.20;3.10;;;14.50;99.90;;;;;;4965367;28;20130;-63
2023/01/26 11:39:49;;;;;;;12.02;2.60;;;14.30;99.90;;;;;;4965162;28;20038;-58
2023/01/26 11:42:35;;;;;;;10.73;2.22;;;14.50;99.90;;;;;;4964941;28;20069;-60
2023/01/26 11:45:19;;;;;;;13.27;2.35;;;13.90;99.90;;;;;;4948190;28;20126;-59
2023/01/26 11:48:05;;;;;;;12.95;2.47;;;13.90;99.90;;;;;;4965347;28;20489;-60
2023/01/26 11:50:55;;;;;;;13.85;2.80;;;13.40;99.90;;;;;;4965355;28;20101;-61
2023/01/26 11:53:35;;;;;;;12.82;2.90;;;12.80;99.90;;;;;;4948422;28;20389;-57
2023/01/26 11:56:34;;;;;;;17.77;2.85;;;12.30;99.90;;;;;;4964082;28;20034;-61
2023/01/26 11:59:15;;;;;;;13.88;2.67;;;12.10;99.90;;;;;;4965622;28;20554;-61
2023/01/26 12:01:48;;;;;;;14.55;2.40;;;11.30;99.90;;;;;;4965287;28;20682;-62
2023/01/26 12:04:18;;;;;;;16.90;3.30;;;11.10;99.90;;;;;;4948201;28;20050;-57
2023/01/26 12:06:47;;;;;;;18.63;3.10;;;11.00;99.90;;;;;;4964618;28;20059;-58
2023/01/26 12:09:35;;;;;;;15.15;2.72;;;11.00;99.90;;;;;;4946900;28;20051;-58
2023/01/26 12:12:16;;;;;;;12.25;2.60;;;10.90;99.90;;;;;;4974511;28;20050;-60
2023/01/26 12:14:54;;;;;;;20.48;2.83;;;10.70;99.90;;;;;;4983994;28;20100;-62
2023/01/26 12:17:42;;;;;;;16.40;3.55;;;10.60;99.90;;;;;;4968686;28;20061;-59
2023/01/26 12:20:28;;;;;;;18.45;3.25;;;10.40;99.90;;;;;;4975744;28;20431;-61
2023/01/26 12:22:59;;;;;;;14.82;2.65;;;10.10;99.90;;;;;;4984468;28;20047;-58
2023/01/26 12:25:38;;;;;;;18.52;3.90;;;9.90;99.90;;;;;;4983930;28;20464;-59
2023/01/26 12:28:35;;;;;;;16.15;3.03;;;10.00;99.90;;;;;;4983084;28;20133;-61
2023/01/26 12:31:31;;;;;;;12.77;2.40;;;10.30;99.90;;;;;;4982735;28;20074;-59
2023/01/26 12:33:57;;;;;;;15.82;3.25;;;10.30;99.90;;;;;;4984738;28;20184;-61
2023/01/26 12:36:50;;;;;;;15.30;3.10;;;10.10;99.90;;;;;;4983571;28;20625;-58
2023/01/26 12:39:34;;;;;;;15.35;2.95;;;10.00;99.90;;;;;;4983863;28;20050;-59
2023/01/26 12:42:05;;;;;;;15.77;3.28;;;10.30;99.90;;;;;;4980851;28;20161;-61
2023/01/26 12:44:55;;;;;;;19.83;3.20;;;10.30;99.90;;;;;;4966835;28;20053;-58
2023/01/26 12:47:27;;;;;;;14.93;2.83;;;10.00;99.90;;;;;;4967334;28;20060;-58
2023/01/26 12:50:10;;;;;;;15.50;3.28;;;10.50;99.90;;;;;;4984586;28;20096;-52
2023/01/26 12:52:49;;;;;;;18.50;3.38;;;10.50;99.90;;;;;;4984341;28;20473;-60
2023/01/26 12:55:33;;;;;;;15.27;2.92;;;10.50;99.90;;;;;;4983183;28;20056;-60
2023/01/26 12:58:23;;;;;;;8.77;1.85;;;10.20;99.90;;;;;;4985311;28;20047;-61
2023/01/26 13:00:54;;;;;;;16.30;2.30;;;9.80;99.90;;;;;;4970461;28;20112;-63
2023/01/26 13:03:27;;;;;;;13.55;2.15;;;9.60;99.90;;;;;;4984274;28;20104;-61
2023/01/26 13:06:00;;;;;;;11.95;2.58;;;9.50;99.90;;;;;;4983692;28;20136;-63
2023/01/26 13:08:29;;;;;;;11.45;1.90;;;9.20;99.90;;;;;;4983877;28;20046;-62
2023/01/26 13:10:56;;;;;;;11.10;2.50;;;9.00;99.90;;;;;;4983601;28;20129;-62
2023/01/26 13:13:27;;;;;;;8.63;1.83;;;8.80;99.90;;;;;;4983980;28;20431;-62
2023/01/26 13:16:14;;;;;;;13.23;2.75;;;8.60;99.90;;;;;;4984491;28;20053;-60
2023/01/26 13:18:56;;;;;;;12.25;2.17;;;8.50;99.90;;;;;;4983566;28;20049;-62
2023/01/26 13:21:42;;;;;;;11.50;2.17;;;8.40;99.90;;;;;;4984024;28;20046;-63
2023/01/26 13:24:17;;;;;;;13.00;2.63;;;8.30;99.90;;;;;;4982823;28;20038;-63
2023/01/26 13:26:47;;;;;;;;;;;8.30;99.90;;;;;;4986072;28;20133;-62
2023/01/26 13:29:27;;;;;;;17.38;2.40;;;8.30;99.90;;;;;;4987326;28;19968;-63
2023/01/26 13:31:55;;;;;;;10.50;2.22;;;8.00;99.90;;;;;;4987859;28;20129;-61
2023/01/26 13:34:35;;;;;;;14.10;2.60;;;8.10;99.90;;;;;;4987643;28;20042;-62
2023/01/26 13:37:18;;;;;;;14.15;2.30;;;7.90;99.90;;;;;;4987615;28;20410;-56
2023/01/26 13:39:50;;;;;;;9.60;2.03;;;8.00;99.90;;;;;;4988350;28;20505;-59
2023/01/26 13:42:26;;;;;;;13.20;2.03;;;7.80;99.90;;;;;;4989151;28;20057;-63
2023/01/26 13:44:59;;;;;;;10.48;2.58;;;8.30;99.90;;;;;;4989466;28;20042;-60